Time;durP1;ratioP1;P1;durP2;ratioP2;P2;SDS_P1;SDS_P2;PMS_P1;PMS_P2;Temp;Humidity;BMP_temperature;BMP_pressure;BME280_temperature;BME280_humidity;BME280_pressure;Samples;Min_cycle;Max_cycle;Signal;HPM_P1;HPM_P2
2022/04/18 00:01:18;;;;;;;22.17;14.68;;;5.80;92.60;;;;;;5001764;28;20095;-90
2022/04/18 00:03:47;;;;;;;24.25;14.88;;;5.90;92.80;;;;;;4996246;28;20056;-91
2022/04/18 00:06:20;;;;;;;22.90;15.00;;;5.80;92.90;;;;;;4993863;28;20045;-92
2022/04/18 00:08:46;;;;;;;23.90;14.65;;;5.80;93.40;;;;;;5025584;28;20152;-89
2022/04/18 00:11:11;;;;;;;24.15;15.77;;;5.80;93.50;;;;;;4995770;28;20152;-93
2022/04/18 00:13:37;;;;;;;24.70;14.90;;;5.70;93.70;;;;;;4997327;28;20084;-89
2022/04/18 00:16:05;;;;;;;26.92;16.00;;;5.70;94.30;;;;;;4988689;28;20050;-90
2022/04/18 00:18:31;;;;;;;23.38;15.32;;;5.70;94.40;;;;;;4974068;28;20049;-89
2022/04/18 00:20:57;;;;;;;22.05;15.05;;;5.70;94.40;;;;;;4988756;28;20041;-89
2022/04/18 00:23:23;;;;;;;24.90;15.30;;;5.70;94.40;;;;;;4979707;28;20132;-91
2022/04/18 00:25:54;;;;;;;26.63;15.50;;;5.60;94.50;;;;;;4980767;28;20056;-89
2022/04/18 00:28:19;;;;;;;25.48;15.05;;;5.60;94.80;;;;;;4994327;28;20544;-89
2022/04/18 00:30:45;;;;;;;22.88;15.18;;;5.60;95.00;;;;;;4969687;28;20045;-89
2022/04/18 00:33:11;;;;;;;26.67;15.35;;;5.50;95.30;;;;;;5000293;28;20064;-90
2022/04/18 00:35:36;;;;;;;21.15;14.93;;;5.50;95.70;;;;;;4986886;28;20045;-89
2022/04/18 00:38:05;;;;;;;24.10;15.27;;;5.40;96.30;;;;;;4978207;28;20445;-91
2022/04/18 00:40:38;;;;;;;21.98;15.20;;;5.50;96.70;;;;;;4995666;28;20054;-90
2022/04/18 00:43:08;;;;;;;24.85;14.90;;;5.50;97.20;;;;;;5011217;28;20189;-91
2022/04/18 00:45:34;;;;;;;23.23;15.65;;;5.50;97.20;;;;;;5007389;28;20050;-89
2022/04/18 00:48:00;;;;;;;23.40;14.50;;;5.50;97.80;;;;;;4993829;28;20050;-89
2022/04/18 00:50:28;;;;;;;23.30;15.20;;;5.50;97.80;;;;;;5010297;28;20045;-89
2022/04/18 00:52:57;;;;;;;23.33;16.00;;;5.50;98.10;;;;;;4992997;28;20046;-93
2022/04/18 00:55:28;;;;;;;25.17;15.65;;;5.40;98.50;;;;;;4977175;28;20049;-88
2022/04/18 00:57:55;;;;;;;24.45;15.15;;;5.40;98.60;;;;;;4989734;28;20049;-89
2022/04/18 01:00:22;;;;;;;21.95;15.07;;;5.30;99.00;;;;;;5003186;28;20566;-92
2022/04/18 01:02:48;;;;;;;24.65;15.57;;;5.30;99.70;;;;;;5005530;28;20243;-94
2022/04/18 01:05:18;;;;;;;23.30;16.20;;;5.30;99.90;;;;;;4994986;28;20837;-89
2022/04/18 01:07:44;;;;;;;26.70;15.65;;;5.30;99.90;;;;;;5011363;28;20064;-91
2022/04/18 01:10:10;;;;;;;21.10;14.93;;;5.30;99.90;;;;;;4997675;28;20041;-93
2022/04/18 01:12:35;;;;;;;25.27;15.80;;;5.20;99.90;;;;;;4982356;28;20046;-90
2022/04/18 01:15:04;;;;;;;24.23;16.17;;;5.20;99.90;;;;;;4992252;28;20107;-90
2022/04/18 01:17:30;;;;;;;22.20;14.95;;;5.20;99.90;;;;;;4989407;28;20141;-91
2022/04/18 01:19:58;;;;;;;21.85;15.00;;;5.20;99.90;;;;;;5012457;28;20068;-92
2022/04/18 01:22:24;;;;;;;23.90;15.45;;;5.20;99.90;;;;;;5000048;28;20049;-89
2022/04/18 01:30:19;;;;;;;20.10;14.20;;;5.00;99.90;;;;;;5009497;28;20042;-88
2022/04/18 01:32:44;;;;;;;20.70;14.57;;;5.00;99.90;;;;;;4976577;28;20071;-89
2022/04/18 01:35:10;;;;;;;23.25;14.75;;;5.00;99.90;;;;;;4991796;28;20053;-88
2022/04/18 01:37:37;;;;;;;21.00;14.40;;;5.00;99.90;;;;;;4984856;28;20049;-89
2022/04/18 01:40:06;;;;;;;21.05;14.57;;;5.00;99.90;;;;;;4997711;28;20102;-89
2022/04/18 01:42:32;;;;;;;24.25;15.05;;;4.90;99.90;;;;;;4993520;28;20081;-88
2022/04/18 01:45:00;;;;;;;22.27;14.35;;;4.90;99.90;;;;;;4989683;28;20110;-92
2022/04/18 01:47:26;;;;;;;22.10;14.30;;;4.90;99.90;;;;;;4970652;28;20521;-90
2022/04/18 01:49:55;;;;;;;26.27;14.45;;;4.90;99.90;;;;;;4981472;28;20046;-89
2022/04/18 01:52:21;;;;;;;20.45;13.88;;;4.90;99.90;;;;;;4994253;28;20049;-91
2022/04/18 01:54:46;;;;;;;25.38;14.75;;;4.80;99.90;;;;;;4989046;28;20057;-88
2022/04/18 01:57:14;;;;;;;24.67;14.68;;;4.90;99.90;;;;;;5014532;28;20053;-90
2022/04/18 01:59:42;;;;;;;21.90;13.75;;;4.80;99.90;;;;;;4992887;28;20337;-89
2022/04/18 02:02:08;;;;;;;24.48;13.55;;;4.90;99.90;;;;;;4984374;28;20054;-92
2022/04/18 02:04:34;;;;;;;20.63;14.63;;;4.90;99.90;;;;;;4984638;28;20061;-90
2022/04/18 02:07:00;;;;;;;21.67;13.43;;;4.80;99.90;;;;;;5014181;28;20598;-90
2022/04/18 02:09:28;;;;;;;22.00;13.57;;;4.70;99.90;;;;;;5019048;28;20141;-93
2022/04/18 02:11:56;;;;;;;19.48;13.48;;;4.70;99.90;;;;;;5000080;28;20045;-90
2022/04/18 02:14:25;;;;;;;19.25;12.95;;;4.70;99.90;;;;;;4996061;28;20053;-89
2022/04/18 02:16:54;;;;;;;20.85;13.63;;;4.70;99.90;;;;;;4995472;28;20058;-89
2022/04/18 02:19:20;;;;;;;19.25;13.50;;;4.60;99.90;;;;;;5015314;28;20037;-92
2022/04/18 02:21:45;;;;;;;22.60;13.82;;;4.70;99.90;;;;;;4985965;28;20150;-90
2022/04/18 02:24:14;;;;;;;19.67;13.15;;;4.70;99.90;;;;;;4996386;28;20058;-89
2022/04/18 02:26:40;;;;;;;19.80;13.05;;;4.70;99.90;;;;;;5005956;28;20037;-92
2022/04/18 02:29:06;;;;;;;19.63;13.00;;;4.60;99.90;;;;;;5001902;28;20060;-89
2022/04/18 02:32:47;;;;;;;20.40;12.40;;;4.60;99.90;;;;;;5001335;28;20042;-89
2022/04/18 02:34:17;;;;;;;19.88;12.77;;;4.60;99.90;;;;;;5011906;28;20796;-92
2022/04/18 02:36:45;;;;;;;18.98;12.52;;;4.60;99.90;;;;;;4997537;28;20053;-89
2022/04/18 02:39:12;;;;;;;20.58;13.30;;;4.50;99.90;;;;;;4990122;28;20053;-90
2022/04/18 02:41:37;;;;;;;23.05;13.45;;;4.50;99.90;;;;;;5000344;28;20472;-90
2022/04/18 02:44:06;;;;;;;20.77;14.00;;;4.50;99.90;;;;;;4980497;28;20056;-92
2022/04/18 02:46:34;;;;;;;23.90;14.13;;;4.50;99.90;;;;;;5011832;28;20056;-89
2022/04/18 02:49:00;;;;;;;23.00;13.60;;;4.50;99.90;;;;;;5002970;28;20042;-90
2022/04/18 02:51:27;;;;;;;19.75;12.90;;;4.50;99.90;;;;;;4996025;28;20057;-88
2022/04/18 02:53:59;;;;;;;18.95;12.68;;;4.50;99.90;;;;;;4999157;28;20120;-93
2022/04/18 02:56:30;;;;;;;20.63;13.23;;;4.50;99.90;;;;;;4998911;28;20180;-95
2022/04/18 02:58:56;;;;;;;23.70;13.23;;;4.60;99.90;;;;;;5000124;28;20124;-91
2022/04/18 03:01:25;;;;;;;20.02;13.50;;;4.60;99.90;;;;;;4997531;28;20971;-89
2022/04/18 03:03:51;;;;;;;20.13;12.50;;;4.60;99.90;;;;;;5014034;28;20058;-90
2022/04/18 03:06:17;;;;;;;26.17;12.15;;;4.50;99.90;;;;;;5020809;28;20168;-89
2022/04/18 03:08:43;;;;;;;18.55;12.05;;;4.50;99.90;;;;;;5012405;28;20057;-90
2022/04/18 03:11:10;;;;;;;20.98;13.07;;;4.50;99.90;;;;;;5011450;28;20050;-90
2022/04/18 03:13:37;;;;;;;18.75;12.40;;;4.40;99.90;;;;;;5016967;28;20476;-90
2022/04/18 03:16:08;;;;;;;18.80;12.07;;;4.40;99.90;;;;;;4996401;28;20046;-89
2022/04/18 03:18:33;;;;;;;19.00;12.15;;;4.40;99.90;;;;;;5013064;28;20041;-92
2022/04/18 03:20:59;;;;;;;19.55;12.43;;;4.40;99.90;;;;;;4993577;28;20045;-92
2022/04/18 03:23:27;;;;;;;19.35;12.93;;;4.30;99.90;;;;;;4982636;28;20443;-91
2022/04/18 03:25:53;;;;;;;18.75;12.55;;;4.40;99.90;;;;;;4996184;28;20466;-90
2022/04/18 03:28:19;;;;;;;24.95;13.00;;;4.30;99.90;;;;;;4993732;28;20065;-89
2022/04/18 03:30:47;;;;;;;17.65;11.63;;;4.20;99.90;;;;;;4979289;28;20045;-90
2022/04/18 03:33:13;;;;;;;19.35;11.93;;;4.20;99.90;;;;;;4991393;28;20096;-89
2022/04/18 03:39:50;;;;;;;18.98;12.35;;;4.20;99.90;;;;;;5009433;28;20042;-89
2022/04/18 03:41:09;;;;;;;18.20;12.23;;;4.20;99.90;;;;;;5010717;28;20050;-90
2022/04/18 03:43:35;;;;;;;19.23;12.05;;;4.10;99.90;;;;;;5002431;28;20046;-92
2022/04/18 03:46:01;;;;;;;18.92;12.20;;;4.10;99.90;;;;;;4994133;28;20053;-91
2022/04/18 03:48:26;;;;;;;21.80;12.82;;;4.10;99.90;;;;;;4975459;28;20050;-90
2022/04/18 03:50:52;;;;;;;18.88;12.57;;;4.10;99.90;;;;;;4995213;28;20103;-93
2022/04/18 03:53:18;;;;;;;23.13;12.82;;;4.00;99.90;;;;;;5007642;28;20497;-91
2022/04/18 03:55:43;;;;;;;19.52;12.27;;;4.00;99.90;;;;;;4989004;28;20038;-90
2022/04/18 03:58:09;;;;;;;18.63;12.10;;;4.00;99.90;;;;;;5005746;28;20100;-89
2022/04/18 04:00:42;;;;;;;18.55;11.98;;;4.00;99.90;;;;;;4994804;28;20587;-89
2022/04/18 04:03:08;;;;;;;21.67;13.02;;;4.00;99.90;;;;;;4992804;28;20054;-89
2022/04/18 04:05:34;;;;;;;18.25;12.27;;;3.90;99.90;;;;;;4987674;28;20054;-94
2022/04/18 04:08:00;;;;;;;19.77;12.52;;;3.90;99.90;;;;;;4990682;28;20049;-90
2022/04/18 04:10:26;;;;;;;20.05;12.65;;;3.90;99.90;;;;;;5022881;28;20049;-89
2022/04/18 04:13:01;;;;;;;18.75;12.43;;;3.90;99.90;;;;;;4994629;28;20076;-92
2022/04/18 04:15:27;;;;;;;19.98;12.63;;;3.90;99.90;;;;;;5009732;28;20038;-89
2022/04/18 04:17:53;;;;;;;20.35;12.07;;;3.90;99.90;;;;;;5015033;28;20042;-88
2022/04/18 04:20:19;;;;;;;19.05;12.77;;;3.90;99.90;;;;;;4962710;28;20046;-91
2022/04/18 04:22:49;;;;;;;19.52;12.38;;;3.90;99.90;;;;;;5011537;28;20053;-89
2022/04/18 04:25:18;;;;;;;20.95;12.98;;;3.90;99.90;;;;;;4993063;28;20072;-88
2022/04/18 04:27:46;;;;;;;20.83;12.32;;;3.80;99.90;;;;;;4978953;28;20057;-90
2022/04/18 04:30:15;;;;;;;20.60;12.40;;;3.80;99.90;;;;;;4991824;28;20088;-90
2022/04/18 04:32:40;;;;;;;19.95;11.82;;;3.80;99.90;;;;;;4993871;28;20050;-90
2022/04/18 04:35:06;;;;;;;20.75;12.55;;;3.70;99.90;;;;;;5002382;28;20042;-89
2022/04/18 04:37:35;;;;;;;19.13;11.75;;;3.70;99.90;;;;;;4990542;28;20521;-91
2022/04/18 04:40:00;;;;;;;19.67;12.68;;;3.70;99.90;;;;;;5018004;28;20049;-92
2022/04/18 04:42:26;;;;;;;19.77;11.88;;;3.70;99.90;;;;;;5003091;28;20049;-92
2022/04/18 04:44:52;;;;;;;18.63;11.98;;;3.80;99.90;;;;;;5009189;28;20121;-91
2022/04/18 04:47:17;;;;;;;18.35;11.88;;;3.70;99.90;;;;;;4991460;28;20046;-89
2022/04/18 04:49:52;;;;;;;18.23;12.40;;;3.70;99.90;;;;;;4977541;28;20561;-90
2022/04/18 04:52:19;;;;;;;18.33;12.00;;;3.80;99.90;;;;;;5009458;28;20050;-89
2022/04/18 04:54:49;;;;;;;17.73;11.93;;;3.80;99.90;;;;;;4993663;28;20077;-88
2022/04/18 04:57:15;;;;;;;19.35;12.07;;;3.80;99.90;;;;;;4990277;28;20096;-88
2022/04/18 04:59:41;;;;;;;18.52;11.57;;;3.80;99.90;;;;;;4993590;28;20690;-88
2022/04/18 05:02:06;;;;;;;23.20;12.82;;;3.80;99.90;;;;;;4993989;28;20103;-88
2022/04/18 05:04:32;;;;;;;19.92;12.25;;;3.80;99.90;;;;;;4990586;28;20049;-89
2022/04/18 05:06:58;;;;;;;20.52;11.57;;;3.90;99.90;;;;;;5009621;28;20049;-89
2022/04/18 05:09:26;;;;;;;18.75;11.98;;;3.90;99.90;;;;;;4996053;28;20053;-89
2022/04/18 05:11:55;;;;;;;18.33;12.35;;;3.90;99.90;;;;;;5000213;28;20041;-89
2022/04/18 05:14:21;;;;;;;18.23;11.82;;;3.90;99.90;;;;;;5013123;28;20052;-88
2022/04/18 05:16:47;;;;;;;18.60;12.15;;;3.90;99.90;;;;;;4994597;28;20729;-87
2022/04/18 05:19:12;;;;;;;19.92;12.02;;;3.90;99.90;;;;;;4975660;28;20049;-88
2022/04/18 05:21:38;;;;;;;19.77;10.68;;;4.00;99.90;;;;;;4992075;28;20507;-88
2022/04/18 05:24:05;;;;;;;19.65;11.85;;;4.00;99.90;;;;;;4993180;28;20085;-89
2022/04/18 05:26:40;;;;;;;18.58;12.35;;;4.10;99.90;;;;;;4992381;28;20053;-88
2022/04/18 05:29:09;;;;;;;17.65;11.75;;;4.20;99.90;;;;;;4990331;28;20061;-89
2022/04/18 05:31:35;;;;;;;15.60;11.60;;;4.40;99.90;;;;;;4984460;28;20046;-88
2022/04/18 05:34:00;;;;;;;18.08;11.43;;;4.60;99.90;;;;;;4980578;28;20057;-89
2022/04/18 05:36:26;;;;;;;16.15;11.18;;;4.60;99.90;;;;;;5016504;28;20038;-88
2022/04/18 05:38:52;;;;;;;18.13;11.85;;;4.90;99.90;;;;;;5006840;28;20080;-90
2022/04/18 05:41:18;;;;;;;17.95;11.32;;;5.10;99.90;;;;;;5020343;28;20396;-90
2022/04/18 05:43:51;;;;;;;18.70;11.27;;;5.30;99.90;;;;;;4995142;28;20085;-89
2022/04/18 05:46:16;;;;;;;14.93;10.60;;;5.60;99.90;;;;;;4995384;28;20053;-88
2022/04/18 05:48:42;;;;;;;15.02;10.35;;;5.80;99.90;;;;;;4995274;28;20061;-89
2022/04/18 05:51:08;;;;;;;17.00;10.75;;;6.00;99.90;;;;;;5012460;28;20053;-88
2022/04/18 05:53:34;;;;;;;16.73;10.70;;;6.20;99.90;;;;;;4981364;28;20491;-89
2022/04/18 05:56:00;;;;;;;13.38;10.55;;;6.50;99.90;;;;;;5014787;28;20070;-91
2022/04/18 05:58:26;;;;;;;14.95;10.02;;;6.70;99.90;;;;;;4978968;28;20121;-88
2022/04/18 06:00:55;;;;;;;17.58;10.73;;;6.90;99.90;;;;;;4985920;28;20073;-90
2022/04/18 06:03:20;;;;;;;15.32;10.18;;;7.20;99.90;;;;;;4978850;28;20535;-92
2022/04/18 06:05:50;;;;;;;13.80;10.30;;;7.30;99.90;;;;;;4992506;28;20099;-91
2022/04/18 06:08:18;;;;;;;12.70;10.32;;;7.60;99.90;;;;;;4996948;28;20046;-90
2022/04/18 06:10:46;;;;;;;11.57;9.55;;;7.80;99.90;;;;;;4995366;28;20042;-90
2022/04/18 06:13:17;;;;;;;14.00;9.85;;;8.00;99.90;;;;;;4984557;28;20053;-90
2022/04/18 06:15:53;;;;;;;;;;;;;;;;;;;;;
2022/04/18 06:18:19;;;;;;;19.90;9.55;;;8.40;99.90;;;;;;5003769;28;20394;-91
2022/04/18 06:20:45;;;;;;;11.75;9.13;;;8.60;99.90;;;;;;4992355;28;20050;-92
2022/04/18 06:23:17;;;;;;;11.80;8.55;;;8.80;99.90;;;;;;5005605;28;20050;-89
2022/04/18 06:25:43;;;;;;;13.20;9.90;;;8.90;99.30;;;;;;5023938;28;20049;-91
2022/04/18 06:28:09;;;;;;;11.70;9.02;;;9.00;97.80;;;;;;5003858;28;20507;-89
2022/04/18 06:30:38;;;;;;;13.48;9.32;;;9.20;95.70;;;;;;5019110;28;20236;-89
2022/04/18 06:33:04;;;;;;;13.13;9.65;;;9.20;94.30;;;;;;5000701;28;20042;-89
2022/04/18 06:35:30;;;;;;;14.80;9.45;;;9.30;94.00;;;;;;4996337;28;20049;-88
2022/04/18 06:37:56;;;;;;;11.57;9.02;;;9.30;93.40;;;;;;4998581;28;20204;-88
2022/04/18 06:40:22;;;;;;;12.05;9.52;;;9.30;90.90;;;;;;4996165;28;20053;-88
2022/04/18 06:42:49;;;;;;;13.52;9.32;;;9.30;91.00;;;;;;4997626;28;20418;-87
2022/04/18 06:45:25;;;;;;;13.57;9.68;;;9.30;91.00;;;;;;4983214;28;20042;-95
2022/04/18 06:47:50;;;;;;;11.25;9.30;;;9.30;90.80;;;;;;5010424;28;20068;-89
2022/04/18 06:50:16;;;;;;;12.95;8.88;;;9.30;91.10;;;;;;5000238;28;20121;-89
2022/04/18 06:52:50;;;;;;;12.88;9.27;;;9.40;90.20;;;;;;5027459;28;20407;-90
2022/04/18 06:55:19;;;;;;;13.18;9.05;;;9.50;88.70;;;;;;5010481;28;20413;-87
2022/04/18 06:57:55;;;;;;;;;;;;;;;;;;;;;
2022/04/18 07:00:21;;;;;;;12.20;8.57;;;9.50;87.10;;;;;;5005106;28;20053;-89
2022/04/18 07:02:50;;;;;;;11.07;8.68;;;9.50;85.50;;;;;;4989216;28;20041;-91
2022/04/18 07:05:16;;;;;;;12.23;9.27;;;9.50;83.80;;;;;;4990267;28;20052;-90
2022/04/18 07:07:42;;;;;;;12.88;9.23;;;9.50;82.90;;;;;;4990681;28;20049;-90
2022/04/18 07:10:13;;;;;;;11.32;9.05;;;9.40;81.40;;;;;;5011487;28;20240;-92
2022/04/18 07:12:39;;;;;;;11.80;8.63;;;9.40;81.00;;;;;;5012794;28;20035;-91
2022/04/18 07:15:05;;;;;;;13.98;8.77;;;9.40;79.80;;;;;;4986154;28;21141;-90
2022/04/18 07:17:33;;;;;;;12.80;9.07;;;9.50;79.10;;;;;;4994491;28;20057;-92
2022/04/18 07:19:59;;;;;;;14.13;9.00;;;9.50;78.30;;;;;;4993194;28;20167;-92
2022/04/18 07:22:28;;;;;;;12.50;8.95;;;9.50;78.00;;;;;;4994123;28;20077;-89
2022/04/18 07:24:57;;;;;;;11.10;8.20;;;9.50;77.10;;;;;;5011077;28;20044;-89
2022/04/18 07:27:25;;;;;;;13.10;8.65;;;9.60;77.60;;;;;;5006092;28;20068;-91
2022/04/18 07:30:01;;;;;;;12.13;8.25;;;9.60;77.70;;;;;;4995312;28;20511;-89
2022/04/18 07:32:38;;;;;;;15.90;9.20;;;9.60;78.40;;;;;;5009947;28;20128;-88
2022/04/18 07:35:07;;;;;;;12.30;8.43;;;9.70;77.00;;;;;;4981113;28;20325;-88
2022/04/18 07:37:36;;;;;;;13.98;8.02;;;9.70;76.70;;;;;;5006356;28;20058;-87
2022/04/18 07:40:05;;;;;;;12.98;9.40;;;9.80;76.60;;;;;;4988019;28;20056;-90
2022/04/18 07:42:34;;;;;;;13.43;8.52;;;9.80;77.10;;;;;;4994823;28;20058;-90
2022/04/18 07:45:05;;;;;;;14.30;9.68;;;9.90;76.70;;;;;;4990453;28;20550;-89
2022/04/18 07:47:31;;;;;;;11.95;8.68;;;10.10;76.10;;;;;;4971569;28;20078;-89
2022/04/18 07:49:56;;;;;;;16.20;9.38;;;10.10;75.30;;;;;;4994858;28;20131;-88
2022/04/18 07:52:24;;;;;;;12.32;8.60;;;10.20;75.60;;;;;;4970639;28;20091;-86
2022/04/18 07:54:50;;;;;;;12.82;8.45;;;10.40;74.90;;;;;;4984429;28;20046;-86
2022/04/18 07:57:16;;;;;;;12.95;7.70;;;10.40;74.20;;;;;;5004646;28;20513;-87
2022/04/18 07:59:41;;;;;;;13.63;8.32;;;10.50;74.60;;;;;;4967793;28;20133;-86
2022/04/18 08:02:08;;;;;;;12.43;8.23;;;10.60;73.00;;;;;;4972621;28;20076;-88
2022/04/18 08:04:34;;;;;;;13.00;8.10;;;10.70;72.00;;;;;;4987415;28;21477;-89
2022/04/18 08:07:00;;;;;;;11.55;8.25;;;10.80;72.80;;;;;;4984625;28;20132;-87
2022/04/18 08:09:43;;;;;;;12.05;7.72;;;10.80;73.10;;;;;;4988289;28;20042;-89
2022/04/18 08:12:17;;;;;;;12.38;8.25;;;10.90;73.20;;;;;;5007957;28;20050;-89
2022/04/18 08:14:45;;;;;;;9.95;7.25;;;10.90;72.30;;;;;;5004243;28;20088;-88
2022/04/18 08:17:14;;;;;;;10.43;7.18;;;11.10;71.50;;;;;;5002721;28;20522;-88
2022/04/18 08:19:40;;;;;;;11.05;7.53;;;11.20;71.40;;;;;;4986344;28;20050;-88
2022/04/18 08:22:26;;;;;;;10.82;6.70;;;11.30;70.70;;;;;;4990156;28;20116;-88
2022/04/18 08:24:54;;;;;;;11.93;7.70;;;11.50;66.50;;;;;;4989652;28;20054;-87
2022/04/18 08:27:20;;;;;;;15.50;7.78;;;11.70;67.30;;;;;;4988727;28;20113;-88
2022/04/18 08:29:48;;;;;;;11.05;7.35;;;11.80;66.90;;;;;;4987049;28;20065;-87
2022/04/18 08:32:14;;;;;;;10.65;6.93;;;11.80;67.10;;;;;;5002925;28;20779;-87
2022/04/18 08:34:40;;;;;;;10.23;7.07;;;11.90;66.00;;;;;;5004362;28;20050;-88
2022/04/18 08:37:07;;;;;;;9.15;6.75;;;12.00;64.50;;;;;;4988733;28;20064;-86
2022/04/18 08:39:33;;;;;;;10.32;7.25;;;12.20;63.90;;;;;;4990707;28;20057;-88
2022/04/18 08:42:00;;;;;;;10.77;7.05;;;12.30;64.20;;;;;;4994906;28;20120;-86
2022/04/18 08:44:29;;;;;;;10.63;6.53;;;12.40;63.80;;;;;;4998546;28;20038;-88
2022/04/18 08:46:56;;;;;;;11.18;7.07;;;12.50;62.40;;;;;;5003400;28;20612;-87
2022/04/18 08:54:53;;;;;;;10.60;6.10;;;13.40;53.50;;;;;;5003267;28;20056;-88
2022/04/18 08:57:19;;;;;;;9.07;7.00;;;13.70;52.60;;;;;;5010859;28;20058;-88
2022/04/18 08:59:44;;;;;;;12.48;5.90;;;13.90;52.20;;;;;;4984962;28;20057;-87
2022/04/18 09:02:10;;;;;;;10.02;5.93;;;14.30;51.30;;;;;;4969988;28;20537;-88
2022/04/18 09:04:36;;;;;;;9.98;6.85;;;14.50;50.90;;;;;;4981536;28;20056;-88
2022/04/18 09:07:15;;;;;;;11.13;6.30;;;14.70;50.40;;;;;;4995660;28;20402;-88
2022/04/18 09:09:42;;;;;;;7.55;5.78;;;14.90;48.40;;;;;;4992484;28;20076;-89
2022/04/18 09:12:19;;;;;;;14.20;5.88;;;15.20;47.70;;;;;;5000913;28;20488;-87
2022/04/18 09:14:48;;;;;;;8.52;5.68;;;15.50;48.10;;;;;;4983469;28;20144;-89
2022/04/18 09:17:36;;;;;;;8.60;6.20;;;16.40;46.80;;;;;;4999967;28;20060;-88
2022/04/18 09:20:15;;;;;;;9.43;5.63;;;18.10;41.00;;;;;;4984147;28;20075;-88
2022/04/18 09:22:46;;;;;;;8.02;5.35;;;19.40;39.70;;;;;;4983903;28;20061;-88
2022/04/18 09:25:15;;;;;;;7.53;5.50;;;20.40;39.10;;;;;;4972745;28;20416;-89
2022/04/18 09:27:43;;;;;;;6.90;5.65;;;21.30;38.50;;;;;;5000790;28;20180;-88
2022/04/18 09:30:18;;;;;;;7.07;5.70;;;22.10;37.10;;;;;;4974319;28;20061;-89
2022/04/18 09:33:00;;;;;;;7.68;5.32;;;22.80;34.40;;;;;;4974584;28;20088;-90
2022/04/18 09:35:27;;;;;;;7.45;5.28;;;23.30;30.00;;;;;;4988739;28;20486;-89
2022/04/18 09:38:06;;;;;;;9.40;5.30;;;23.50;32.30;;;;;;4987310;28;20052;-89
2022/04/18 09:40:36;;;;;;;6.90;5.18;;;24.00;30.30;;;;;;4997819;28;20049;-90
2022/04/18 09:43:05;;;;;;;7.70;5.30;;;24.50;29.40;;;;;;5000929;28;20053;-90
2022/04/18 09:45:31;;;;;;;6.43;4.80;;;24.90;30.00;;;;;;4997918;28;20049;-87
2022/04/18 09:48:02;;;;;;;6.65;5.18;;;25.30;29.40;;;;;;5006088;28;20678;-89
2022/04/18 09:53:26;;;;;;;6.70;4.60;;;25.90;27.10;;;;;;5012286;28;20045;-88
2022/04/18 09:55:55;;;;;;;6.15;4.60;;;25.80;26.30;;;;;;4995555;28;20279;-88
2022/04/18 09:58:22;;;;;;;8.38;4.53;;;25.90;26.40;;;;;;5012344;28;20041;-88
2022/04/18 10:00:53;;;;;;;5.70;4.97;;;25.60;26.50;;;;;;5011802;28;20114;-87
2022/04/18 10:03:22;;;;;;;5.18;4.68;;;26.00;27.60;;;;;;5011721;28;20079;-88
2022/04/18 10:05:52;;;;;;;5.22;4.70;;;26.50;27.20;;;;;;4995447;28;20049;-89
2022/04/18 10:08:23;;;;;;;6.20;4.80;;;26.90;25.70;;;;;;5012059;28;20403;-88
2022/04/18 10:10:54;;;;;;;8.25;4.72;;;27.20;26.30;;;;;;4995673;28;20713;-87
2022/04/18 10:13:22;;;;;;;5.65;4.38;;;27.50;25.60;;;;;;4996323;28;20053;-86
2022/04/18 10:15:52;;;;;;;5.00;4.50;;;27.80;25.30;;;;;;5011992;28;20045;-87
2022/04/18 10:18:23;;;;;;;6.60;4.95;;;28.30;25.50;;;;;;4996163;28;20099;-87
2022/04/18 10:21:11;;;;;;;6.53;4.90;;;28.50;24.20;;;;;;5011816;28;20072;-88
2022/04/18 10:23:51;;;;;;;6.28;4.60;;;28.50;22.10;;;;;;4995235;28;20073;-87
2022/04/18 10:26:35;;;;;;;5.47;3.90;;;28.70;23.80;;;;;;5012273;28;20049;-88
2022/04/18 10:29:09;;;;;;;4.82;4.32;;;29.30;23.20;;;;;;5013019;28;20100;-89
2022/04/18 10:31:43;;;;;;;4.90;3.95;;;29.60;23.10;;;;;;5015442;28;20050;-87
2022/04/18 10:34:13;;;;;;;8.02;4.40;;;30.00;23.00;;;;;;5015836;28;20067;-87
2022/04/18 10:36:53;;;;;;;5.53;4.60;;;30.50;22.90;;;;;;4999128;28;20049;-88
2022/04/18 10:39:22;;;;;;;7.18;5.13;;;30.90;22.40;;;;;;4999720;28;20131;-89
2022/04/18 10:41:52;;;;;;;5.05;4.55;;;30.90;22.20;;;;;;5015226;28;20049;-89
2022/04/18 10:44:36;;;;;;;5.00;3.90;;;31.00;22.60;;;;;;4999372;28;20049;-90
2022/04/18 10:47:12;;;;;;;4.43;3.25;;;31.10;21.20;;;;;;4999513;28;20423;-86
2022/04/18 10:49:40;;;;;;;4.05;3.25;;;30.80;21.30;;;;;;4998919;28;20055;-88
2022/04/18 10:52:09;;;;;;;5.78;3.55;;;30.80;20.80;;;;;;4999016;28;20068;-86
2022/04/18 10:54:36;;;;;;;5.63;4.68;;;30.80;20.80;;;;;;4999211;28;20107;-85
2022/04/18 10:57:11;;;;;;;6.70;4.40;;;30.50;20.70;;;;;;5015693;28;20041;-85
2022/04/18 10:59:46;;;;;;;4.13;3.72;;;30.70;20.70;;;;;;4999130;28;20101;-89
2022/04/18 11:02:45;;;;;;;4.15;3.33;;;31.10;20.70;;;;;;4998889;28;20053;-88
2022/04/18 11:05:36;;;;;;;4.53;3.22;;;31.60;20.40;;;;;;5015340;28;20054;-90
2022/04/18 11:08:22;;;;;;;11.73;4.82;;;31.70;19.10;;;;;;4999007;28;20050;-89
2022/04/18 11:11:05;;;;;;;5.63;4.00;;;31.10;18.70;;;;;;4998142;28;20045;-89
2022/04/18 11:13:33;;;;;;;4.85;4.30;;;30.80;18.50;;;;;;5015725;28;20128;-87
2022/04/18 11:16:25;;;;;;;4.32;3.70;;;30.60;19.70;;;;;;5007050;28;21744;-90
2022/04/18 11:19:16;;;;;;;6.40;3.42;;;30.60;19.50;;;;;;4980004;28;20071;-88
2022/04/18 11:21:55;;;;;;;4.93;3.30;;;31.00;19.60;;;;;;4992512;28;20084;-88
2022/04/18 11:24:44;;;;;;;3.92;3.25;;;31.10;19.20;;;;;;5006416;28;20057;-85
2022/04/18 11:27:12;;;;;;;5.55;3.50;;;31.40;19.40;;;;;;5001997;28;20068;-85
2022/04/18 11:29:40;;;;;;;5.53;3.58;;;31.80;18.30;;;;;;4999927;28;20054;-85
2022/04/18 11:32:07;;;;;;;5.18;3.53;;;32.30;18.20;;;;;;4999907;28;20588;-86
2022/04/18 11:34:35;;;;;;;4.55;3.63;;;32.70;18.80;;;;;;4969049;28;20075;-86
2022/04/18 11:37:04;;;;;;;5.15;3.33;;;32.80;18.00;;;;;;4999975;28;20487;-86
2022/04/18 11:39:44;;;;;;;4.18;3.50;;;32.60;17.50;;;;;;4995513;28;20049;-86
2022/04/18 11:42:14;;;;;;;4.18;3.65;;;32.50;16.70;;;;;;4988779;28;21066;-85
2022/04/18 11:44:41;;;;;;;3.75;3.33;;;32.60;18.00;;;;;;5005292;28;20057;-85
2022/04/18 11:47:20;;;;;;;4.03;3.63;;;32.90;17.90;;;;;;4970487;28;20057;-86
2022/04/18 11:49:49;;;;;;;4.53;3.85;;;32.90;17.10;;;;;;4971830;28;20053;-87
2022/04/18 11:52:24;;;;;;;4.88;3.80;;;33.20;16.60;;;;;;4978955;28;20046;-86
2022/04/18 11:55:19;;;;;;;4.22;3.03;;;33.50;17.10;;;;;;4984345;28;20045;-85
2022/04/18 11:57:49;;;;;;;4.53;3.00;;;33.90;18.10;;;;;;4993016;28;20053;-88
2022/04/18 12:06:44;;;;;;;4.15;2.92;;;34.30;17.40;;;;;;5007628;28;20081;-86
2022/04/18 12:08:36;;;;;;;3.47;3.05;;;34.60;16.00;;;;;;4986680;28;20503;-88
2022/04/18 12:11:02;;;;;;;3.30;3.00;;;34.10;16.40;;;;;;5002917;28;20053;-86
2022/04/18 12:13:28;;;;;;;3.80;3.00;;;33.60;16.20;;;;;;4984947;28;20482;-87
2022/04/18 12:15:54;;;;;;;4.25;2.95;;;33.80;16.50;;;;;;4990656;28;20046;-88
2022/04/18 12:18:20;;;;;;;5.43;3.13;;;34.00;16.60;;;;;;4968806;28;20109;-87
2022/04/18 12:20:48;;;;;;;5.00;2.90;;;34.30;16.40;;;;;;5002315;28;20476;-87
2022/04/18 12:23:19;;;;;;;4.68;3.03;;;34.70;16.00;;;;;;4987025;28;20045;-86
2022/04/18 12:25:52;;;;;;;4.07;3.20;;;34.90;15.80;;;;;;4986370;28;20550;-86
2022/04/18 12:28:23;;;;;;;4.28;3.22;;;34.80;15.60;;;;;;4990633;28;20061;-88
2022/04/18 12:30:50;;;;;;;3.80;3.40;;;35.00;15.60;;;;;;5004984;28;20054;-87
2022/04/18 12:33:22;;;;;;;3.25;2.95;;;34.60;15.40;;;;;;4986827;28;20043;-88
2022/04/18 12:35:51;;;;;;;3.20;2.90;;;34.60;15.20;;;;;;5003300;28;20495;-88
2022/04/18 12:38:19;;;;;;;3.63;3.30;;;34.40;15.00;;;;;;4988290;28;20115;-87
2022/04/18 12:40:56;;;;;;;4.45;3.13;;;34.60;15.80;;;;;;5002310;28;20616;-87
2022/04/18 12:43:33;;;;;;;3.83;3.00;;;34.90;15.30;;;;;;5004357;28;20041;-87
2022/04/18 12:46:01;;;;;;;3.83;3.35;;;34.40;15.00;;;;;;4989699;28;20129;-87
2022/04/18 12:48:32;;;;;;;5.05;3.38;;;34.40;15.30;;;;;;5004791;28;20060;-87
2022/04/18 12:51:00;;;;;;;3.88;3.05;;;34.70;15.30;;;;;;4989174;28;20053;-86
2022/04/18 12:53:49;;;;;;;3.65;2.85;;;34.90;14.80;;;;;;4987769;28;20045;-88
2022/04/18 12:56:26;;;;;;;3.35;3.00;;;35.20;15.60;;;;;;4989190;28;20064;-87
2022/04/18 12:58:54;;;;;;;4.63;2.92;;;35.40;15.40;;;;;;4993778;28;20130;-88
2022/04/18 13:01:24;;;;;;;3.97;2.90;;;35.60;15.00;;;;;;5006590;28;20052;-88
2022/04/18 13:03:51;;;;;;;6.45;3.10;;;35.80;14.80;;;;;;4988461;28;20049;-87
2022/04/18 13:06:24;;;;;;;3.10;2.80;;;35.60;14.70;;;;;;4972898;28;20050;-87
2022/04/18 13:08:54;;;;;;;3.65;3.35;;;35.90;14.80;;;;;;5003919;28;20041;-88
2022/04/18 13:11:20;;;;;;;3.78;3.22;;;36.10;15.00;;;;;;5004519;28;20090;-85
2022/04/18 13:13:46;;;;;;;4.22;3.17;;;36.10;14.80;;;;;;4971240;28;20578;-88
2022/04/18 13:16:25;;;;;;;5.68;3.80;;;35.40;14.20;;;;;;5004584;28;20049;-87